Time;durP1;ratioP1;P1;durP2;ratioP2;P2;SDS_P1;SDS_P2;PMS_P1;PMS_P2;Temp;Humidity;BMP_temperature;BMP_pressure;BME280_temperature;BME280_humidity;BME280_pressure;Samples;Min_cycle;Max_cycle;Signal;HPM_P1;HPM_P2
2023/08/08 00:02:27;;;;;;;2.72;1.35;;;18.90;65.10;20.60;101250.00;;;;5043545;28;20687;-76
2023/08/08 00:04:54;;;;;;;3.97;1.23;;;18.90;65.20;20.60;101241.00;;;;5040599;28;20550;-76
2023/08/08 00:07:22;;;;;;;3.85;1.88;;;18.90;65.20;20.60;101236.00;;;;5044284;28;20282;-76
2023/08/08 00:09:49;;;;;;;3.33;1.42;;;18.90;65.20;20.60;101238.00;;;;5047744;28;20196;-76
2023/08/08 00:12:16;;;;;;;2.50;1.10;;;18.90;65.30;20.60;101237.00;;;;5047404;28;20196;-76
2023/08/08 00:14:43;;;;;;;3.50;1.30;;;19.00;65.30;20.60;101233.00;;;;5046103;28;20203;-76
2023/08/08 00:17:10;;;;;;;3.75;1.17;;;19.00;65.30;20.60;101230.00;;;;5046959;28;20699;-76
2023/08/08 00:19:37;;;;;;;3.30;1.25;;;19.00;65.30;20.60;101236.00;;;;5048823;28;20191;-76
2023/08/08 00:22:04;;;;;;;2.78;1.00;;;19.00;65.30;20.60;101226.00;;;;5047628;28;20570;-76
2023/08/08 00:24:33;;;;;;;3.60;1.65;;;19.00;65.30;20.70;101228.00;;;;5033340;28;20299;-76
2023/08/08 00:27:00;;;;;;;2.53;1.35;;;19.10;65.40;20.70;101225.00;;;;5046580;28;20230;-76
2023/08/08 00:29:27;;;;;;;1.85;0.90;;;19.10;65.40;20.70;101224.00;;;;5047756;28;20195;-76
2023/08/08 00:31:54;;;;;;;11.02;1.23;;;19.10;65.40;20.80;101224.00;;;;5048009;28;20730;-75
2023/08/08 00:34:21;;;;;;;7.18;1.50;;;19.10;65.50;20.80;101233.00;;;;5049104;28;20663;-76
2023/08/08 00:36:48;;;;;;;3.67;1.50;;;19.10;65.50;20.80;101234.00;;;;5035983;28;20660;-76
2023/08/08 00:39:15;;;;;;;2.58;1.10;;;19.20;65.50;20.80;101232.00;;;;5033736;28;20207;-77
2023/08/08 00:41:43;;;;;;;2.47;1.30;;;19.20;65.60;20.80;101232.00;;;;5048243;28;20318;-76
2023/08/08 00:44:11;;;;;;;1.95;1.20;;;19.20;65.60;20.90;101224.00;;;;5047448;28;20198;-76
2023/08/08 00:46:37;;;;;;;3.05;1.63;;;19.30;65.60;20.90;101226.00;;;;5043552;28;20559;-76
2023/08/08 00:49:04;;;;;;;4.65;1.50;;;19.30;65.60;20.90;101232.00;;;;5047529;28;20199;-76
2023/08/08 00:51:32;;;;;;;3.05;1.27;;;19.30;65.60;21.00;101224.00;;;;5048125;28;20211;-76
2023/08/08 00:54:01;;;;;;;2.90;1.20;;;19.30;65.60;21.00;101221.00;;;;5042160;28;20191;-76
2023/08/08 00:56:28;;;;;;;3.97;1.30;;;19.40;65.70;21.00;101214.00;;;;5042161;28;20227;-77
2023/08/08 00:58:56;;;;;;;3.70;1.38;;;19.40;65.80;21.00;101209.00;;;;5033826;28;20227;-77
2023/08/08 01:01:23;;;;;;;4.68;1.23;;;19.40;65.80;21.00;101221.00;;;;5044844;28;20196;-76
2023/08/08 01:03:52;;;;;;;6.03;1.67;;;19.40;65.70;21.10;101220.00;;;;5047315;28;20210;-76
2023/08/08 01:06:32;;;;;;;2.95;1.08;;;19.50;66.40;21.00;101227.00;;;;5046154;28;20208;-77
2023/08/08 01:09:06;;;;;;;3.20;1.40;;;19.40;65.80;21.00;101217.00;;;;5040613;28;20199;-77
2023/08/08 01:11:35;;;;;;;3.42;1.13;;;19.50;65.80;21.10;101220.00;;;;5043586;28;20593;-76
2023/08/08 01:14:07;;;;;;;2.72;1.20;;;19.50;65.70;21.10;101209.00;;;;5047181;28;20191;-76
2023/08/08 01:16:34;;;;;;;2.53;1.30;;;19.50;65.80;21.10;101206.00;;;;5042689;28;20196;-77
2023/08/08 01:19:02;;;;;;;3.97;1.50;;;19.50;65.80;21.10;101209.00;;;;5042264;28;20235;-76
2023/08/08 01:21:34;;;;;;;3.65;1.55;;;19.50;65.80;21.10;101205.00;;;;5046818;28;20195;-76
2023/08/08 01:24:17;;;;;;;2.38;0.93;;;19.50;65.80;21.00;101207.00;;;;5038104;28;20196;-76
2023/08/08 01:26:45;;;;;;;4.43;1.40;;;19.50;65.80;21.10;101207.00;;;;5044080;28;20656;-76
2023/08/08 01:29:12;;;;;;;2.78;1.20;;;19.50;65.80;21.10;101210.00;;;;5040830;28;20735;-77
2023/08/08 01:31:39;;;;;;;3.55;1.52;;;19.50;65.80;21.10;101218.00;;;;5039071;28;20191;-77
2023/08/08 01:34:06;;;;;;;4.47;1.40;;;19.50;65.80;21.10;101215.00;;;;5047907;28;20377;-76
2023/08/08 01:36:41;;;;;;;3.35;1.65;;;19.50;65.70;21.10;101217.00;;;;5047211;28;20226;-76
2023/08/08 01:39:18;;;;;;;2.58;0.95;;;19.50;65.80;21.10;101214.00;;;;5047376;28;20219;-76
2023/08/08 01:41:48;;;;;;;6.10;1.42;;;19.50;65.80;21.10;101210.00;;;;5046706;28;20695;-76
2023/08/08 01:44:17;;;;;;;6.13;1.40;;;19.50;65.80;21.10;101208.00;;;;5047390;28;20200;-76
2023/08/08 01:46:46;;;;;;;4.35;1.45;;;19.50;65.80;21.10;101216.00;;;;5047105;28;20206;-76
2023/08/08 01:49:13;;;;;;;5.65;1.40;;;19.50;65.80;21.10;101207.00;;;;5048327;28;20195;-76
2023/08/08 01:51:40;;;;;;;3.10;1.35;;;19.40;65.80;21.10;101207.00;;;;5047501;28;20580;-76
2023/08/08 01:54:07;;;;;;;6.20;1.92;;;19.40;65.80;21.10;101200.00;;;;5039972;28;20207;-76
2023/08/08 01:56:35;;;;;;;4.88;1.17;;;19.40;65.80;21.00;101192.00;;;;5043118;28;20235;-76
2023/08/08 01:59:02;;;;;;;5.60;1.90;;;19.40;65.90;21.00;101191.00;;;;5047835;28;20219;-76
2023/08/08 02:01:29;;;;;;;3.53;1.42;;;19.40;65.90;21.00;101187.00;;;;5045583;28;20196;-76
2023/08/08 02:03:56;;;;;;;5.00;1.58;;;19.40;66.00;21.00;101193.00;;;;5035343;28;20571;-76
2023/08/08 02:06:23;;;;;;;4.43;1.33;;;19.40;65.90;21.00;101191.00;;;;5051947;28;20192;-76
2023/08/08 02:08:50;;;;;;;5.70;1.40;;;19.40;66.00;21.00;101199.00;;;;5050507;28;20573;-77
2023/08/08 02:11:17;;;;;;;5.93;1.70;;;19.40;66.00;21.00;101196.00;;;;5050607;28;20200;-76
2023/08/08 02:13:45;;;;;;;3.97;2.03;;;19.40;66.10;21.00;101188.00;;;;5051533;28;20643;-77
2023/08/08 02:16:12;;;;;;;4.57;1.55;;;19.40;66.20;21.00;101188.00;;;;5049318;28;20214;-76
2023/08/08 02:18:41;;;;;;;4.88;1.17;;;19.40;66.20;21.00;101190.00;;;;5033945;28;20238;-76
2023/08/08 02:21:08;;;;;;;4.97;1.65;;;19.40;66.20;21.00;101180.00;;;;5044402;28;20210;-77
2023/08/08 02:23:35;;;;;;;4.35;1.65;;;19.40;66.20;21.00;101181.00;;;;5031978;28;20196;-76
2023/08/08 02:26:02;;;;;;;4.53;1.70;;;19.40;66.10;21.00;101176.00;;;;5042526;28;20198;-76
2023/08/08 02:28:29;;;;;;;2.75;1.60;;;19.40;66.20;21.00;101175.00;;;;5051355;28;20198;-76
2023/08/08 02:30:57;;;;;;;6.60;1.58;;;19.40;66.80;21.00;101173.00;;;;5050028;28;20195;-76
2023/08/08 02:33:24;;;;;;;3.50;2.00;;;19.30;66.10;21.00;101171.00;;;;5047141;28;20204;-76
2023/08/08 02:35:51;;;;;;;6.63;1.95;;;19.30;66.10;20.90;101169.00;;;;5040900;28;20220;-76
2023/08/08 02:38:18;;;;;;;9.02;2.00;;;19.30;66.10;20.90;101170.00;;;;5042870;28;20223;-76
2023/08/08 02:40:45;;;;;;;5.68;2.55;;;19.30;66.10;20.90;101177.00;;;;5049616;28;20243;-76
2023/08/08 02:43:12;;;;;;;5.28;1.63;;;19.30;66.00;20.90;101168.00;;;;5050965;28;20207;-76
2023/08/08 02:45:39;;;;;;;4.18;1.52;;;19.30;66.10;20.90;101164.00;;;;5050682;28;20936;-77
2023/08/08 02:48:08;;;;;;;4.43;1.88;;;19.30;66.10;20.90;101162.00;;;;5051545;28;21070;-77
2023/08/08 02:50:35;;;;;;;3.10;1.58;;;19.30;66.10;20.90;101160.00;;;;5051613;28;20196;-76
2023/08/08 02:53:02;;;;;;;3.25;1.45;;;19.30;66.10;20.90;101168.00;;;;5044380;28;20199;-76
2023/08/08 02:55:28;;;;;;;9.55;2.08;;;19.20;66.10;20.90;101170.00;;;;5050551;28;20210;-76
2023/08/08 02:57:55;;;;;;;4.65;1.67;;;19.30;66.20;20.90;101172.00;;;;5011211;28;20228;-76
2023/08/08 03:00:23;;;;;;;5.13;1.83;;;19.20;66.10;20.80;101168.00;;;;5010234;28;20676;-76
2023/08/08 03:02:50;;;;;;;4.63;1.65;;;19.20;66.20;20.80;101162.00;;;;5010683;28;20312;-76
2023/08/08 03:05:18;;;;;;;3.95;1.80;;;19.20;66.20;20.80;101159.00;;;;5010552;28;20204;-76
2023/08/08 03:07:45;;;;;;;3.97;1.58;;;19.20;66.30;20.80;101162.00;;;;5009696;28;20205;-76
2023/08/08 03:10:12;;;;;;;3.25;1.90;;;19.10;66.20;20.80;101160.00;;;;5005789;28;20220;-76
2023/08/08 03:12:41;;;;;;;3.35;1.73;;;19.20;66.20;20.80;101164.00;;;;5011210;28;20201;-76
2023/08/08 03:15:10;;;;;;;2.40;1.67;;;19.20;66.30;20.80;101167.00;;;;5008517;28;20275;-76
2023/08/08 03:17:37;;;;;;;3.58;1.52;;;19.10;66.20;20.80;101159.00;;;;5010588;28;20216;-76
2023/08/08 03:20:06;;;;;;;6.15;2.22;;;19.10;66.20;20.80;101157.00;;;;5009990;28;20204;-76
2023/08/08 03:22:35;;;;;;;6.50;1.83;;;19.10;66.30;20.70;101148.00;;;;5009872;28;20205;-76
2023/08/08 03:25:04;;;;;;;7.38;2.10;;;19.10;66.40;20.70;101151.00;;;;5009222;28;20209;-76
2023/08/08 03:27:30;;;;;;;4.70;2.22;;;19.10;66.40;20.70;101156.00;;;;5010062;28;20203;-77
2023/08/08 03:29:57;;;;;;;4.63;1.73;;;19.00;66.30;20.70;101153.00;;;;5008317;28;20197;-76
2023/08/08 03:32:25;;;;;;;3.08;1.75;;;19.10;66.40;20.70;101158.00;;;;5008425;28;20204;-77
2023/08/08 03:34:52;;;;;;;2.97;1.67;;;19.00;66.40;20.70;101154.00;;;;5009484;28;20289;-76
2023/08/08 03:37:19;;;;;;;4.47;2.25;;;19.00;66.40;20.70;101154.00;;;;5005660;28;20201;-76
2023/08/08 03:39:47;;;;;;;6.43;2.25;;;19.00;66.40;20.70;101151.00;;;;5003038;28;20600;-76
2023/08/08 03:42:14;;;;;;;8.50;2.55;;;19.00;66.50;20.70;101151.00;;;;5009772;28;20220;-76
2023/08/08 03:44:41;;;;;;;3.47;1.80;;;19.00;66.50;20.70;101147.00;;;;5010285;28;20201;-76
2023/08/08 03:47:08;;;;;;;4.55;2.10;;;19.00;66.60;20.70;101146.00;;;;5009285;28;20622;-76
2023/08/08 03:49:35;;;;;;;4.30;1.75;;;19.00;66.60;20.60;101142.00;;;;5009060;28;20193;-76
2023/08/08 03:52:02;;;;;;;2.88;1.70;;;19.00;66.70;20.70;101141.00;;;;5009719;28;20197;-76
2023/08/08 03:54:29;;;;;;;4.53;2.10;;;19.00;66.80;20.60;101140.00;;;;4997924;28;20208;-76
2023/08/08 03:56:57;;;;;;;3.20;1.67;;;19.00;66.80;20.60;101146.00;;;;5024855;28;20249;-76
2023/08/08 03:59:24;;;;;;;3.92;2.35;;;19.00;66.80;20.60;101145.00;;;;5037189;28;20231;-76
2023/08/08 04:01:51;;;;;;;2.83;1.63;;;18.90;66.70;20.60;101140.00;;;;5031488;28;20204;-76
2023/08/08 04:04:18;;;;;;;4.30;2.50;;;19.00;66.80;20.60;101139.00;;;;5049313;28;20210;-76
2023/08/08 04:06:45;;;;;;;3.88;1.80;;;19.00;66.80;20.60;101139.00;;;;5048927;28;20199;-76
2023/08/08 04:09:12;;;;;;;4.28;2.47;;;19.00;66.80;20.60;101137.00;;;;5049079;28;20203;-76
2023/08/08 04:11:39;;;;;;;5.75;2.22;;;19.00;66.80;20.60;101138.00;;;;5048165;28;20210;-76
2023/08/08 04:14:07;;;;;;;3.03;2.15;;;19.00;66.80;20.60;101135.00;;;;5045874;28;20570;-76
2023/08/08 04:16:34;;;;;;;4.63;2.20;;;18.90;66.80;20.60;101133.00;;;;5046793;28;20257;-76
2023/08/08 04:19:03;;;;;;;4.03;2.00;;;18.90;66.70;20.60;101135.00;;;;5041146;28;20720;-76
2023/08/08 04:21:32;;;;;;;3.50;2.58;;;18.90;66.80;20.60;101129.00;;;;5048576;28;20211;-76
2023/08/08 04:23:59;;;;;;;5.40;2.40;;;18.90;66.80;20.60;101132.00;;;;5031078;28;20211;-76
2023/08/08 04:26:26;;;;;;;5.28;2.50;;;18.90;66.80;20.60;101132.00;;;;5037445;28;20191;-76
2023/08/08 04:28:53;;;;;;;5.38;1.85;;;18.90;67.50;20.60;101129.00;;;;5044627;28;20196;-76
2023/08/08 04:31:24;;;;;;;4.95;2.30;;;18.90;66.90;20.50;101130.00;;;;5048658;28;20196;-76
2023/08/08 04:33:51;;;;;;;5.15;2.45;;;18.90;66.90;20.50;101130.00;;;;5047866;28;20180;-76
2023/08/08 04:36:18;;;;;;;7.43;2.22;;;18.90;66.90;20.60;101131.00;;;;5042862;28;20207;-76
2023/08/08 04:38:45;;;;;;;4.70;2.13;;;18.90;67.00;20.50;101135.00;;;;5048982;28;20212;-76
2023/08/08 04:41:12;;;;;;;5.10;2.63;;;18.90;67.00;20.60;101126.00;;;;5048548;28;20231;-76
2023/08/08 04:43:39;;;;;;;3.53;2.15;;;18.90;67.10;20.60;101134.00;;;;5048485;28;20703;-76
2023/08/08 04:46:06;;;;;;;5.10;2.35;;;18.80;67.10;20.60;101127.00;;;;5048253;28;20199;-76
2023/08/08 04:48:34;;;;;;;4.60;2.25;;;18.90;67.20;20.60;101132.00;;;;5049025;28;20200;-76
2023/08/08 04:51:01;;;;;;;3.38;2.00;;;18.90;67.20;20.60;101130.00;;;;5045679;28;20203;-76
2023/08/08 04:53:28;;;;;;;7.10;2.30;;;18.90;67.20;20.60;101126.00;;;;5029298;28;20969;-76
2023/08/08 04:55:54;;;;;;;5.47;2.03;;;18.90;67.30;20.60;101128.00;;;;5030146;28;20219;-76
2023/08/08 04:58:21;;;;;;;4.65;1.90;;;18.90;67.20;20.60;101127.00;;;;5047715;28;20226;-76
2023/08/08 05:00:50;;;;;;;4.68;2.10;;;18.90;67.20;20.60;101123.00;;;;5047237;28;20836;-76
2023/08/08 05:03:17;;;;;;;3.55;1.98;;;18.90;67.20;20.60;101129.00;;;;5049241;28;20286;-76
2023/08/08 05:05:46;;;;;;;3.00;1.95;;;18.90;67.30;20.60;101124.00;;;;5048604;28;20218;-76
2023/08/08 05:08:13;;;;;;;5.40;1.80;;;18.90;67.40;20.60;101120.00;;;;5043961;28;20204;-76
2023/08/08 05:10:40;;;;;;;3.90;1.90;;;19.00;67.40;20.70;101130.00;;;;5046162;28;21017;-76
2023/08/08 05:13:07;;;;;;;2.78;1.90;;;19.00;67.40;20.70;101127.00;;;;5032262;28;20204;-76
2023/08/08 05:15:34;;;;;;;4.30;1.98;;;19.00;67.40;20.70;101136.00;;;;5039542;28;20729;-76
2023/08/08 05:18:01;;;;;;;4.20;1.75;;;19.00;67.40;20.70;101129.00;;;;5048334;28;20192;-76
2023/08/08 05:20:28;;;;;;;4.13;1.88;;;19.00;67.40;20.70;101129.00;;;;5040127;28;20224;-76
2023/08/08 05:22:56;;;;;;;4.97;1.60;;;19.00;67.40;20.70;101128.00;;;;5042051;28;20199;-76
2023/08/08 05:25:23;;;;;;;5.28;1.80;;;19.00;67.30;20.80;101128.00;;;;5043716;28;20207;-76
2023/08/08 05:27:50;;;;;;;2.88;1.23;;;19.10;67.20;20.80;101128.00;;;;5044004;28;20667;-76
2023/08/08 05:30:17;;;;;;;5.93;1.45;;;19.10;67.20;20.80;101126.00;;;;5042430;28;20199;-76
2023/08/08 05:32:44;;;;;;;2.92;1.10;;;19.10;67.10;20.80;101129.00;;;;5046252;28;20192;-75
2023/08/08 05:35:11;;;;;;;5.32;1.83;;;19.10;67.00;20.80;101130.00;;;;5045302;28;20209;-76
2023/08/08 05:37:38;;;;;;;1.77;1.27;;;19.20;67.00;20.80;101131.00;;;;5047531;28;20206;-76
2023/08/08 05:40:10;;;;;;;3.97;1.30;;;19.10;66.80;20.80;101128.00;;;;5048222;28;20249;-76
2023/08/08 05:42:37;;;;;;;1.63;1.02;;;19.20;66.80;20.90;101135.00;;;;5039049;28;20224;-76
2023/08/08 05:45:05;;;;;;;2.05;1.33;;;19.20;66.70;20.90;101133.00;;;;5036349;28;20211;-76
2023/08/08 05:47:33;;;;;;;2.25;1.15;;;19.20;66.50;20.90;101142.00;;;;5044113;28;20203;-76
2023/08/08 05:50:00;;;;;;;2.83;1.02;;;19.20;66.40;20.90;101138.00;;;;5048177;28;20947;-75
2023/08/08 05:52:27;;;;;;;1.23;0.60;;;19.20;66.20;20.90;101141.00;;;;5041508;28;20211;-75
2023/08/08 05:54:54;;;;;;;1.63;1.02;;;19.30;66.20;20.90;101139.00;;;;5040434;28;20200;-75
2023/08/08 05:57:22;;;;;;;3.40;0.77;;;19.30;66.00;20.90;101138.00;;;;5037707;28;20235;-75
2023/08/08 05:59:53;;;;;;;2.67;0.93;;;19.30;66.00;20.90;101147.00;;;;5037300;28;20242;-75
2023/08/08 06:02:20;;;;;;;3.20;0.90;;;19.30;65.90;21.00;101143.00;;;;5040329;28;20199;-76
2023/08/08 06:04:47;;;;;;;1.63;0.80;;;19.40;66.60;21.00;101145.00;;;;5038574;28;20207;-76
2023/08/08 06:07:24;;;;;;;4.65;1.48;;;19.40;65.80;20.90;101146.00;;;;5045825;28;20203;-76
2023/08/08 06:09:51;;;;;;;1.33;0.63;;;19.40;65.50;21.00;101144.00;;;;5046670;28;20298;-76
2023/08/08 06:12:18;;;;;;;2.15;0.60;;;19.40;65.60;21.10;101143.00;;;;5046708;28;20235;-75
2023/08/08 06:14:47;;;;;;;1.50;0.68;;;19.40;65.50;21.10;101148.00;;;;5045990;28;20208;-75
2023/08/08 06:17:14;;;;;;;2.15;1.27;;;19.40;65.30;21.20;101146.00;;;;5042968;28;20279;-76
2023/08/08 06:19:41;;;;;;;1.38;0.80;;;19.50;65.30;21.20;101159.00;;;;5046948;28;20226;-75
2023/08/08 06:22:09;;;;;;;1.70;0.85;;;19.50;65.10;21.20;101152.00;;;;5041697;28;20318;-75
2023/08/08 06:24:35;;;;;;;2.25;0.75;;;19.50;65.00;21.30;101158.00;;;;5045953;28;20689;-77
2023/08/08 06:27:03;;;;;;;0.85;0.55;;;19.60;65.00;21.30;101165.00;;;;5041813;28;20196;-76
2023/08/08 06:29:30;;;;;;;2.50;0.65;;;19.60;64.80;21.30;101164.00;;;;5046448;28;20195;-76
2023/08/08 06:31:59;;;;;;;1.38;0.50;;;19.70;64.70;21.30;101165.00;;;;5045600;28;20265;-77
2023/08/08 06:34:26;;;;;;;0.73;0.55;;;19.70;64.50;21.40;101164.00;;;;5044493;28;20208;-76
2023/08/08 06:36:53;;;;;;;1.35;0.70;;;19.80;64.50;21.40;101176.00;;;;5037332;28;20219;-78
2023/08/08 06:39:21;;;;;;;2.78;0.98;;;19.80;64.10;21.40;101164.00;;;;5046336;28;20579;-77
2023/08/08 06:41:48;;;;;;;2.70;0.75;;;19.80;64.00;21.50;101168.00;;;;5046756;28;20242;-79
2023/08/08 06:44:15;;;;;;;2.05;0.75;;;19.90;64.00;21.50;101164.00;;;;5043821;28;20200;-77
2023/08/08 06:46:42;;;;;;;1.73;0.50;;;19.90;63.90;21.50;101164.00;;;;5047591;28;20196;-78
2023/08/08 06:49:11;;;;;;;3.85;0.73;;;20.00;63.80;21.60;101167.00;;;;5051079;28;20207;-78
2023/08/08 06:51:38;;;;;;;0.73;0.40;;;20.00;63.80;21.60;101173.00;;;;5044505;28;20208;-79
2023/08/08 06:54:05;;;;;;;1.23;0.50;;;20.00;63.40;21.60;101168.00;;;;5049161;28;20237;-78
2023/08/08 06:56:32;;;;;;;2.05;0.57;;;20.10;63.20;21.70;101166.00;;;;5042069;28;20277;-77
2023/08/08 06:58:59;;;;;;;3.10;0.73;;;20.20;63.10;21.70;101171.00;;;;5048585;28;20683;-78
2023/08/08 07:01:27;;;;;;;2.75;0.40;;;20.20;63.10;21.70;101171.00;;;;5048167;28;20290;-77
2023/08/08 07:03:54;;;;;;;1.50;0.60;;;20.20;63.00;21.80;101186.00;;;;5046109;28;20215;-78
2023/08/08 07:06:23;;;;;;;1.65;0.60;;;20.20;63.00;21.80;101173.00;;;;5044196;28;20192;-77
2023/08/08 07:08:50;;;;;;;3.30;1.00;;;20.30;62.90;21.90;101165.00;;;;5048599;28;20685;-77
2023/08/08 07:11:17;;;;;;;3.22;0.70;;;20.30;62.60;21.90;101170.00;;;;5047829;28;20200;-77
2023/08/08 07:13:44;;;;;;;2.03;0.65;;;20.40;62.60;21.90;101175.00;;;;5049904;28;20218;-78
2023/08/08 07:16:11;;;;;;;2.78;0.70;;;20.40;62.50;22.00;101171.00;;;;5047889;28;20206;-78
2023/08/08 07:18:38;;;;;;;1.77;0.43;;;20.50;62.40;22.00;101175.00;;;;5049675;28;20203;-77
2023/08/08 07:21:07;;;;;;;1.70;0.63;;;20.50;62.40;22.10;101163.00;;;;5041926;28;20746;-77
2023/08/08 07:23:35;;;;;;;1.92;0.65;;;20.60;62.30;22.10;101173.00;;;;5049844;28;20738;-77
2023/08/08 07:26:02;;;;;;;1.50;0.52;;;20.60;62.00;22.20;101168.00;;;;5030328;28;20208;-77
2023/08/08 07:28:29;;;;;;;1.17;0.40;;;20.70;61.60;22.20;101164.00;;;;5042814;28;20203;-76
2023/08/08 07:30:56;;;;;;;1.13;0.47;;;20.70;61.60;22.20;101169.00;;;;5046537;28;20195;-77
2023/08/08 07:33:23;;;;;;;1.90;0.40;;;20.80;61.60;22.30;101169.00;;;;5048253;28;20569;-77
2023/08/08 07:35:51;;;;;;;1.80;0.35;;;20.80;61.30;22.30;101160.00;;;;5047499;28;20203;-77
2023/08/08 07:38:18;;;;;;;1.23;0.50;;;20.80;61.40;22.40;101163.00;;;;5045143;28;20574;-77
2023/08/08 07:40:47;;;;;;;2.95;0.40;;;20.90;61.50;22.50;101164.00;;;;5046823;28;20238;-76
2023/08/08 07:43:14;;;;;;;0.63;0.40;;;20.90;61.10;22.50;101158.00;;;;5029135;28;20490;-76
2023/08/08 07:45:42;;;;;;;2.78;0.60;;;21.00;61.00;22.60;101156.00;;;;5031060;28;20204;-76
2023/08/08 07:48:09;;;;;;;0.70;0.30;;;21.10;61.00;22.60;101151.00;;;;5036747;28;20191;-76
2023/08/08 07:50:36;;;;;;;1.25;0.30;;;21.10;60.80;22.70;101151.00;;;;5031361;28;20561;-76
2023/08/08 07:53:04;;;;;;;3.45;0.52;;;21.20;60.70;22.70;101149.00;;;;5049800;28;20569;-77
2023/08/08 07:55:31;;;;;;;1.02;0.50;;;21.20;60.60;22.80;101153.00;;;;5049149;28;20192;-78
2023/08/08 07:58:00;;;;;;;1.23;0.40;;;21.30;60.60;22.80;101147.00;;;;5042078;28;20202;-76
2023/08/08 08:00:27;;;;;;;0.50;0.30;;;21.40;60.00;22.80;101148.00;;;;5041643;28;20219;-78
2023/08/08 08:02:54;;;;;;;0.80;0.30;;;21.40;59.80;22.90;101147.00;;;;5047646;28;20206;-77
2023/08/08 08:05:21;;;;;;;1.20;0.40;;;21.50;59.80;22.90;101147.00;;;;5035262;28;20200;-78
2023/08/08 08:07:49;;;;;;;6.38;0.63;;;21.50;59.80;23.00;101152.00;;;;5035775;28;20961;-78
2023/08/08 08:10:16;;;;;;;2.17;0.63;;;21.60;59.80;23.00;101151.00;;;;5049001;28;20200;-78
2023/08/08 08:12:43;;;;;;;1.23;0.50;;;21.60;59.50;23.10;101148.00;;;;5049523;28;20195;-78
2023/08/08 08:15:12;;;;;;;0.65;0.30;;;21.70;59.30;23.10;101151.00;;;;5046838;28;20690;-78
2023/08/08 08:17:41;;;;;;;0.50;0.20;;;21.70;59.10;23.20;101149.00;;;;5045800;28;20275;-78
2023/08/08 08:20:11;;;;;;;0.95;0.25;;;21.70;58.90;23.30;101152.00;;;;5045718;28;21104;-77
2023/08/08 08:22:39;;;;;;;0.55;0.17;;;21.80;59.10;23.30;101151.00;;;;5046413;28;20719;-77
2023/08/08 08:25:09;;;;;;;1.73;0.30;;;21.80;59.00;23.30;101150.00;;;;5045926;28;20195;-78
2023/08/08 08:27:36;;;;;;;0.63;0.40;;;21.90;58.90;23.30;101156.00;;;;5043411;28;20196;-77
2023/08/08 08:30:04;;;;;;;3.75;0.50;;;21.90;58.60;23.30;101154.00;;;;5044419;28;20667;-77
2023/08/08 08:32:34;;;;;;;0.30;0.20;;;21.90;58.40;23.40;101160.00;;;;5038972;28;20245;-77
2023/08/08 08:35:02;;;;;;;0.50;0.30;;;21.90;58.10;23.40;101155.00;;;;5048197;28;20200;-77
2023/08/08 08:37:30;;;;;;;0.30;0.20;;;22.00;58.00;23.40;101157.00;;;;5048389;28;20203;-77
2023/08/08 08:39:57;;;;;;;1.42;0.45;;;22.00;58.00;23.50;101155.00;;;;5047533;28;20224;-77
2023/08/08 08:42:25;;;;;;;2.72;0.50;;;22.00;57.90;23.50;101155.00;;;;5047945;28;20706;-77
2023/08/08 08:44:57;;;;;;;0.95;0.45;;;22.10;57.90;23.50;101159.00;;;;5047562;28;20208;-78
2023/08/08 08:47:26;;;;;;;0.35;0.20;;;22.10;57.70;23.50;101158.00;;;;5046606;28;20545;-78
2023/08/08 08:49:55;;;;;;;0.57;0.25;;;22.10;57.60;23.50;101157.00;;;;5040130;28;20195;-78
2023/08/08 08:52:22;;;;;;;1.40;0.30;;;22.20;57.30;23.60;101151.00;;;;5042298;28;20200;-78
2023/08/08 08:54:49;;;;;;;3.20;0.40;;;22.20;57.30;23.60;101164.00;;;;5046932;28;20196;-78
2023/08/08 08:57:17;;;;;;;0.85;0.25;;;22.20;57.30;23.60;101159.00;;;;5033384;28;20232;-77
2023/08/08 08:59:44;;;;;;;0.95;0.30;;;22.20;57.00;23.60;101166.00;;;;5046566;28;20247;-78
2023/08/08 09:02:12;;;;;;;0.50;0.40;;;22.30;57.10;23.60;101157.00;;;;5046505;28;20192;-77
2023/08/08 09:04:41;;;;;;;0.60;0.45;;;22.30;56.70;23.70;101162.00;;;;5047306;28;20199;-77
2023/08/08 09:07:11;;;;;;;0.77;0.28;;;22.40;56.40;23.60;101163.00;;;;5039873;28;20570;-76
2023/08/08 09:09:38;;;;;;;0.57;0.28;;;22.40;56.20;23.70;101163.00;;;;5048041;28;20571;-75
2023/08/08 09:12:06;;;;;;;0.50;0.38;;;22.40;56.30;23.70;101167.00;;;;5040502;28;20596;-76
2023/08/08 09:14:33;;;;;;;1.15;0.30;;;22.40;56.30;23.70;101159.00;;;;5047363;28;20207;-76
2023/08/08 09:17:00;;;;;;;0.98;0.35;;;22.40;56.00;23.70;101164.00;;;;5042281;28;20199;-77
2023/08/08 09:19:27;;;;;;;0.10;0.10;;;22.40;56.10;23.80;101163.00;;;;5048167;28;20556;-75
2023/08/08 09:21:54;;;;;;;0.50;0.30;;;22.40;55.80;23.80;101168.00;;;;5041873;28;20195;-76
2023/08/08 09:24:22;;;;;;;0.20;0.20;;;22.40;56.00;23.70;101169.00;;;;5034943;28;20206;-76
2023/08/08 09:26:49;;;;;;;1.00;0.40;;;22.50;55.30;23.70;101166.00;;;;5046868;28;20200;-75
2023/08/08 09:29:17;;;;;;;0.57;0.30;;;22.40;55.40;23.70;101167.00;;;;5047374;28;20219;-76
2023/08/08 09:31:44;;;;;;;0.43;0.25;;;22.40;55.30;23.70;101157.00;;;;5047300;28;20846;-75
2023/08/08 09:34:11;;;;;;;0.50;0.43;;;22.40;55.60;23.70;101153.00;;;;5046806;28;20200;-77
2023/08/08 09:36:39;;;;;;;1.98;0.28;;;22.40;55.60;23.70;101155.00;;;;5047511;28;20203;-76
2023/08/08 09:39:07;;;;;;;0.82;0.20;;;22.40;55.80;23.80;101162.00;;;;5044472;28;20976;-78
2023/08/08 09:41:36;;;;;;;0.30;0.20;;;22.40;55.80;23.80;101160.00;;;;5045598;28;20239;-76
2023/08/08 09:44:03;;;;;;;0.55;0.30;;;22.40;55.70;23.90;101160.00;;;;5046129;28;20667;-76
2023/08/08 09:46:31;;;;;;;0.43;0.25;;;22.50;55.80;23.90;101161.00;;;;5045104;28;20566;-77
2023/08/08 09:48:59;;;;;;;2.35;0.40;;;22.60;55.80;24.00;101167.00;;;;5048177;28;20203;-76
2023/08/08 09:51:27;;;;;;;2.00;0.40;;;22.60;55.50;24.00;101163.00;;;;5047444;28;20249;-76
2023/08/08 09:53:56;;;;;;;0.60;0.40;;;22.70;55.30;24.00;101156.00;;;;5046693;28;20196;-76
2023/08/08 09:56:25;;;;;;;0.40;0.30;;;22.70;55.20;24.00;101172.00;;;;5046409;28;20235;-76
2023/08/08 09:58:53;;;;;;;1.85;0.32;;;22.70;54.90;24.00;101159.00;;;;5046435;28;20199;-77
2023/08/08 10:01:23;;;;;;;0.50;0.38;;;22.80;54.90;24.00;101163.00;;;;5043312;28;20240;-75
2023/08/08 10:03:53;;;;;;;0.50;0.20;;;22.70;54.80;24.00;101171.00;;;;5045372;28;20598;-76
2023/08/08 10:06:20;;;;;;;1.15;0.30;;;22.80;54.60;24.00;101173.00;;;;5047681;28;20234;-76
2023/08/08 10:08:47;;;;;;;1.40;0.88;;;22.80;54.60;24.00;101171.00;;;;5046998;28;20578;-76
2023/08/08 10:11:15;;;;;;;5.13;0.82;;;22.80;54.30;24.00;101178.00;;;;5044978;28;20199;-76
2023/08/08 10:13:50;;;;;;;0.55;0.50;;;22.70;54.20;23.90;101177.00;;;;5044926;28;20203;-76
2023/08/08 10:16:19;;;;;;;0.47;0.20;;;22.70;53.80;23.90;101168.00;;;;5044891;28;20635;-76
2023/08/08 10:18:55;;;;;;;1.63;0.40;;;22.70;54.20;23.90;101174.00;;;;5045886;28;20210;-75
2023/08/08 10:21:24;;;;;;;0.82;0.38;;;22.70;54.00;23.90;101176.00;;;;5049731;28;20223;-75
2023/08/08 10:24:02;;;;;;;1.85;0.40;;;22.70;53.80;23.90;101174.00;;;;5049348;28;20203;-75
2023/08/08 10:26:29;;;;;;;1.67;0.57;;;22.70;54.00;24.00;101173.00;;;;5051260;28;20210;-75
2023/08/08 10:28:58;;;;;;;0.93;0.57;;;22.70;54.10;24.10;101176.00;;;;5050630;28;20196;-75
2023/08/08 10:31:27;;;;;;;1.20;0.30;;;22.70;53.50;24.20;101172.00;;;;5049973;28;20199;-75
2023/08/08 10:34:04;;;;;;;0.82;0.60;;;22.80;53.40;24.20;101171.00;;;;5046095;28;20212;-75
2023/08/08 10:36:50;;;;;;;0.80;0.57;;;22.90;53.30;24.30;101174.00;;;;5050534;28;20282;-76
2023/08/08 10:39:18;;;;;;;0.70;0.43;;;23.00;53.20;24.50;101173.00;;;;5050554;28;20203;-76
2023/08/08 10:41:48;;;;;;;0.40;0.30;;;23.10;53.70;24.50;101172.00;;;;5051121;28;20707;-76
2023/08/08 10:44:22;;;;;;;0.68;0.60;;;23.20;53.60;24.50;101178.00;;;;5049778;28;20196;-76
2023/08/08 10:46:53;;;;;;;0.55;0.50;;;23.30;53.80;24.70;101169.00;;;;5050650;28;20195;-76
2023/08/08 10:49:20;;;;;;;1.15;0.43;;;23.30;53.80;24.70;101176.00;;;;5049582;28;20211;-75
2023/08/08 10:51:51;;;;;;;1.48;0.50;;;23.40;53.90;24.70;101171.00;;;;5050266;28;20210;-76